sensor_id;sensor_type;location;lat;lon;timestamp;temperature;humidity
28614;DHT22;15806;53.548;9.964;2023-05-19T00:00:12;9.50;1.00
28614;DHT22;15806;53.548;9.964;2023-05-19T00:01:52;9.50;1.00
28614;DHT22;15806;53.548;9.964;2023-05-19T00:03:34;9.50;1.00
28614;DHT22;15806;53.548;9.964;2023-05-19T00:05:15;9.50;1.00
28614;DHT22;15806;53.548;9.964;2023-05-19T00:06:57;9.40;1.00
28614;DHT22;15806;53.548;9.964;2023-05-19T00:08:38;9.50;1.00
28614;DHT22;15806;53.548;9.964;2023-05-19T00:10:19;9.40;1.00
28614;DHT22;15806;53.548;9.964;2023-05-19T00:12:00;9.50;1.00
28614;DHT22;15806;53.548;9.964;2023-05-19T00:13:40;9.40;1.00
28614;DHT22;15806;53.548;9.964;2023-05-19T00:15:21;9.40;1.00
28614;DHT22;15806;53.548;9.964;2023-05-19T00:17:02;9.40;1.00
28614;DHT22;15806;53.548;9.964;2023-05-19T00:18:43;9.50;1.00
28614;DHT22;15806;53.548;9.964;2023-05-19T00:20:23;9.40;1.00
28614;DHT22;15806;53.548;9.964;2023-05-19T00:22:04;9.40;1.00
28614;DHT22;15806;53.548;9.964;2023-05-19T00:23:45;9.40;1.00
28614;DHT22;15806;53.548;9.964;2023-05-19T00:25:25;9.40;1.00
28614;DHT22;15806;53.548;9.964;2023-05-19T00:27:06;9.40;1.00
28614;DHT22;15806;53.548;9.964;2023-05-19T00:28:46;9.30;1.00
28614;DHT22;15806;53.548;9.964;2023-05-19T00:30:27;9.30;1.00
28614;DHT22;15806;53.548;9.964;2023-05-19T00:32:08;9.30;1.00
28614;DHT22;15806;53.548;9.964;2023-05-19T00:33:48;9.30;1.00
28614;DHT22;15806;53.548;9.964;2023-05-19T00:35:29;9.30;1.00
28614;DHT22;15806;53.548;9.964;2023-05-19T00:37:09;9.30;1.00
28614;DHT22;15806;53.548;9.964;2023-05-19T00:38:50;9.30;1.00
28614;DHT22;15806;53.548;9.964;2023-05-19T00:40:31;9.20;1.00
28614;DHT22;15806;53.548;9.964;2023-05-19T00:42:13;9.30;1.00
28614;DHT22;15806;53.548;9.964;2023-05-19T00:43:54;9.20;1.00
28614;DHT22;15806;53.548;9.964;2023-05-19T00:45:34;9.30;1.00
28614;DHT22;15806;53.548;9.964;2023-05-19T00:47:15;9.20;19.50
28614;DHT22;15806;53.548;9.964;2023-05-19T00:48:55;9.30;46.50
28614;DHT22;15806;53.548;9.964;2023-05-19T00:50:36;9.30;46.60
28614;DHT22;15806;53.548;9.964;2023-05-19T00:52:17;9.30;47.40
28614;DHT22;15806;53.548;9.964;2023-05-19T00:53:57;9.20;49.50
28614;DHT22;15806;53.548;9.964;2023-05-19T00:55:39;9.20;97.60
28614;DHT22;15806;53.548;9.964;2023-05-19T00:57:20;9.20;97.20
28614;DHT22;15806;53.548;9.964;2023-05-19T00:59:01;9.20;99.90
28614;DHT22;15806;53.548;9.964;2023-05-19T01:00:42;9.20;99.90
28614;DHT22;15806;53.548;9.964;2023-05-19T01:02:22;9.20;99.90
28614;DHT22;15806;53.548;9.964;2023-05-19T01:04:03;9.20;99.90
28614;DHT22;15806;53.548;9.964;2023-05-19T01:05:44;9.20;99.90
28614;DHT22;15806;53.548;9.964;2023-05-19T01:07:24;9.20;99.90
28614;DHT22;15806;53.548;9.964;2023-05-19T01:09:05;9.20;99.90
28614;DHT22;15806;53.548;9.964;2023-05-19T01:10:45;9.20;99.90
28614;DHT22;15806;53.548;9.964;2023-05-19T01:12:26;9.20;99.90
28614;DHT22;15806;53.548;9.964;2023-05-19T01:14:07;9.10;99.90
28614;DHT22;15806;53.548;9.964;2023-05-19T01:17:56;9.20;99.90
28614;DHT22;15806;53.548;9.964;2023-05-19T01:19:59;9.10;99.90
28614;DHT22;15806;53.548;9.964;2023-05-19T01:26:26;9.10;99.90
28614;DHT22;15806;53.548;9.964;2023-05-19T01:30:32;9.00;99.90
28614;DHT22;15806;53.548;9.964;2023-05-19T01:32:15;9.00;99.90
28614;DHT22;15806;53.548;9.964;2023-05-19T01:33:58;9.00;99.90
28614;DHT22;15806;53.548;9.964;2023-05-19T01:35:40;8.90;99.90
28614;DHT22;15806;53.548;9.964;2023-05-19T01:37:22;8.90;99.90
28614;DHT22;15806;53.548;9.964;2023-05-19T01:39:03;8.90;99.90
28614;DHT22;15806;53.548;9.964;2023-05-19T01:40:44;8.90;99.90
28614;DHT22;15806;53.548;9.964;2023-05-19T01:42:26;8.80;99.90
28614;DHT22;15806;53.548;9.964;2023-05-19T01:44:06;8.90;99.90
28614;DHT22;15806;53.548;9.964;2023-05-19T01:45:48;8.90;99.90
28614;DHT22;15806;53.548;9.964;2023-05-19T01:47:29;8.80;99.90
28614;DHT22;15806;53.548;9.964;2023-05-19T01:49:10;8.80;99.90
28614;DHT22;15806;53.548;9.964;2023-05-19T01:50:50;8.80;99.90
28614;DHT22;15806;53.548;9.964;2023-05-19T01:52:31;8.80;99.90
28614;DHT22;15806;53.548;9.964;2023-05-19T01:54:12;8.70;99.90
28614;DHT22;15806;53.548;9.964;2023-05-19T01:55:53;8.70;1.00
28614;DHT22;15806;53.548;9.964;2023-05-19T01:57:56;8.70;1.00
28614;DHT22;15806;53.548;9.964;2023-05-19T02:01:45;8.70;1.00
28614;DHT22;15806;53.548;9.964;2023-05-19T02:04:08;8.70;1.00
28614;DHT22;15806;53.548;9.964;2023-05-19T02:10:10;8.70;1.00
28614;DHT22;15806;53.548;9.964;2023-05-19T02:12:08;8.70;1.00
28614;DHT22;15806;53.548;9.964;2023-05-19T02:13:54;8.70;1.00
28614;DHT22;15806;53.548;9.964;2023-05-19T02:15:40;8.80;1.00
28614;DHT22;15806;53.548;9.964;2023-05-19T02:17:22;8.70;1.00
28614;DHT22;15806;53.548;9.964;2023-05-19T02:19:22;8.60;1.00
28614;DHT22;15806;53.548;9.964;2023-05-19T02:21:03;8.60;61.90
28614;DHT22;15806;53.548;9.964;2023-05-19T02:22:44;8.60;99.90
28614;DHT22;15806;53.548;9.964;2023-05-19T02:24:25;8.70;99.90
28614;DHT22;15806;53.548;9.964;2023-05-19T02:26:05;8.60;99.90
28614;DHT22;15806;53.548;9.964;2023-05-19T02:27:46;8.50;99.90
28614;DHT22;15806;53.548;9.964;2023-05-19T02:29:26;8.60;99.90
28614;DHT22;15806;53.548;9.964;2023-05-19T02:31:07;8.50;99.90
28614;DHT22;15806;53.548;9.964;2023-05-19T02:32:47;8.50;99.90
28614;DHT22;15806;53.548;9.964;2023-05-19T02:34:28;8.50;99.90
28614;DHT22;15806;53.548;9.964;2023-05-19T02:36:08;8.40;1.00
28614;DHT22;15806;53.548;9.964;2023-05-19T02:37:49;8.40;1.00
28614;DHT22;15806;53.548;9.964;2023-05-19T02:39:29;8.40;1.00
28614;DHT22;15806;53.548;9.964;2023-05-19T02:41:10;8.50;1.00
28614;DHT22;15806;53.548;9.964;2023-05-19T02:42:50;8.50;1.00
28614;DHT22;15806;53.548;9.964;2023-05-19T02:44:31;8.50;1.00
28614;DHT22;15806;53.548;9.964;2023-05-19T02:46:11;8.60;1.00
28614;DHT22;15806;53.548;9.964;2023-05-19T02:47:52;8.60;1.00
28614;DHT22;15806;53.548;9.964;2023-05-19T02:49:32;8.60;1.00
28614;DHT22;15806;53.548;9.964;2023-05-19T02:51:13;8.60;1.00
28614;DHT22;15806;53.548;9.964;2023-05-19T02:52:53;8.60;1.00
28614;DHT22;15806;53.548;9.964;2023-05-19T02:54:34;8.70;1.00
28614;DHT22;15806;53.548;9.964;2023-05-19T02:56:14;8.70;1.00
28614;DHT22;15806;53.548;9.964;2023-05-19T02:57:55;8.70;1.00
28614;DHT22;15806;53.548;9.964;2023-05-19T02:59:35;8.70;1.00
28614;DHT22;15806;53.548;9.964;2023-05-19T03:01:16;8.80;1.00
28614;DHT22;15806;53.548;9.964;2023-05-19T03:02:56;8.80;1.00
28614;DHT22;15806;53.548;9.964;2023-05-19T03:04:37;8.80;1.00
28614;DHT22;15806;53.548;9.964;2023-05-19T03:06:17;8.80;1.00
28614;DHT22;15806;53.548;9.964;2023-05-19T03:07:58;8.80;1.00
28614;DHT22;15806;53.548;9.964;2023-05-19T03:09:39;8.80;1.00
28614;DHT22;15806;53.548;9.964;2023-05-19T03:11:19;8.80;1.00
28614;DHT22;15806;53.548;9.964;2023-05-19T03:13:00;8.80;1.00
28614;DHT22;15806;53.548;9.964;2023-05-19T03:14:40;8.90;1.00
28614;DHT22;15806;53.548;9.964;2023-05-19T03:16:21;8.80;1.00
28614;DHT22;15806;53.548;9.964;2023-05-19T03:18:01;8.80;1.00
28614;DHT22;15806;53.548;9.964;2023-05-19T03:19:42;8.80;1.00
28614;DHT22;15806;53.548;9.964;2023-05-19T03:21:22;8.80;1.00
28614;DHT22;15806;53.548;9.964;2023-05-19T03:23:03;8.80;1.00
28614;DHT22;15806;53.548;9.964;2023-05-19T03:24:43;8.70;1.00
28614;DHT22;15806;53.548;9.964;2023-05-19T03:26:24;8.70;1.00
28614;DHT22;15806;53.548;9.964;2023-05-19T03:28:04;8.80;1.00
28614;DHT22;15806;53.548;9.964;2023-05-19T03:29:45;8.80;1.00
28614;DHT22;15806;53.548;9.964;2023-05-19T03:31:25;8.80;1.00
28614;DHT22;15806;53.548;9.964;2023-05-19T03:33:07;8.80;1.00
28614;DHT22;15806;53.548;9.964;2023-05-19T03:34:49;8.80;1.00
28614;DHT22;15806;53.548;9.964;2023-05-19T03:36:30;8.80;1.00
28614;DHT22;15806;53.548;9.964;2023-05-19T03:38:10;8.80;1.00
28614;DHT22;15806;53.548;9.964;2023-05-19T03:39:51;8.90;1.00
28614;DHT22;15806;53.548;9.964;2023-05-19T03:41:31;8.90;1.00
28614;DHT22;15806;53.548;9.964;2023-05-19T03:43:12;9.00;1.00
28614;DHT22;15806;53.548;9.964;2023-05-19T03:44:53;9.00;1.00
28614;DHT22;15806;53.548;9.964;2023-05-19T03:46:33;9.00;1.00
28614;DHT22;15806;53.548;9.964;2023-05-19T03:48:13;9.00;1.00
28614;DHT22;15806;53.548;9.964;2023-05-19T03:49:54;9.00;1.00
28614;DHT22;15806;53.548;9.964;2023-05-19T03:51:35;8.90;1.00
28614;DHT22;15806;53.548;9.964;2023-05-19T03:53:15;9.00;1.30
28614;DHT22;15806;53.548;9.964;2023-05-19T03:54:56;9.10;2.70
28614;DHT22;15806;53.548;9.964;2023-05-19T03:56:38;9.10;1.00
28614;DHT22;15806;53.548;9.964;2023-05-19T03:58:18;9.00;1.00
28614;DHT22;15806;53.548;9.964;2023-05-19T03:59:59;9.00;28.00
28614;DHT22;15806;53.548;9.964;2023-05-19T04:01:40;9.00;93.10
28614;DHT22;15806;53.548;9.964;2023-05-19T04:03:20;9.00;91.20
28614;DHT22;15806;53.548;9.964;2023-05-19T04:05:01;9.10;80.20
28614;DHT22;15806;53.548;9.964;2023-05-19T04:06:41;9.10;34.20
28614;DHT22;15806;53.548;9.964;2023-05-19T04:08:22;9.10;26.70
28614;DHT22;15806;53.548;9.964;2023-05-19T04:10:04;9.10;92.30
28614;DHT22;15806;53.548;9.964;2023-05-19T04:11:44;9.20;50.70
28614;DHT22;15806;53.548;9.964;2023-05-19T04:13:25;9.20;72.80
28614;DHT22;15806;53.548;9.964;2023-05-19T04:15:06;9.20;99.90
28614;DHT22;15806;53.548;9.964;2023-05-19T04:16:47;9.30;48.40
28614;DHT22;15806;53.548;9.964;2023-05-19T04:18:27;9.40;11.40
28614;DHT22;15806;53.548;9.964;2023-05-19T04:20:08;9.40;1.00
28614;DHT22;15806;53.548;9.964;2023-05-19T04:21:50;9.40;1.00
28614;DHT22;15806;53.548;9.964;2023-05-19T04:23:30;9.50;1.00
28614;DHT22;15806;53.548;9.964;2023-05-19T04:25:11;9.40;1.00
28614;DHT22;15806;53.548;9.964;2023-05-19T04:26:51;9.30;1.00
28614;DHT22;15806;53.548;9.964;2023-05-19T04:28:32;9.30;1.00
28614;DHT22;15806;53.548;9.964;2023-05-19T04:30:13;9.30;1.00
28614;DHT22;15806;53.548;9.964;2023-05-19T04:31:53;9.40;1.00
28614;DHT22;15806;53.548;9.964;2023-05-19T04:33:34;9.40;1.00
28614;DHT22;15806;53.548;9.964;2023-05-19T04:35:15;9.40;1.00
28614;DHT22;15806;53.548;9.964;2023-05-19T04:36:55;9.40;1.00
28614;DHT22;15806;53.548;9.964;2023-05-19T04:38:36;9.40;1.00
28614;DHT22;15806;53.548;9.964;2023-05-19T04:40:17;9.40;1.00
28614;DHT22;15806;53.548;9.964;2023-05-19T04:41:57;9.40;1.00
28614;DHT22;15806;53.548;9.964;2023-05-19T04:43:38;9.30;1.00
28614;DHT22;15806;53.548;9.964;2023-05-19T04:45:19;9.30;9.60
28614;DHT22;15806;53.548;9.964;2023-05-19T04:46:59;9.30;35.60
28614;DHT22;15806;53.548;9.964;2023-05-19T04:48:40;9.40;72.80
28614;DHT22;15806;53.548;9.964;2023-05-19T04:50:20;9.40;56.90
28614;DHT22;15806;53.548;9.964;2023-05-19T04:52:01;9.50;21.80
28614;DHT22;15806;53.548;9.964;2023-05-19T04:53:41;9.60;1.00
28614;DHT22;15806;53.548;9.964;2023-05-19T04:55:22;9.60;1.00
28614;DHT22;15806;53.548;9.964;2023-05-19T04:57:03;9.40;1.00
28614;DHT22;15806;53.548;9.964;2023-05-19T04:58:45;9.40;1.00
28614;DHT22;15806;53.548;9.964;2023-05-19T05:00:26;9.30;1.00
28614;DHT22;15806;53.548;9.964;2023-05-19T05:02:06;9.20;1.00
28614;DHT22;15806;53.548;9.964;2023-05-19T05:03:47;9.30;1.00
28614;DHT22;15806;53.548;9.964;2023-05-19T05:05:27;9.40;1.00
28614;DHT22;15806;53.548;9.964;2023-05-19T05:07:08;9.50;1.00
28614;DHT22;15806;53.548;9.964;2023-05-19T05:08:49;9.60;1.00
28614;DHT22;15806;53.548;9.964;2023-05-19T05:10:30;9.50;1.00
28614;DHT22;15806;53.548;9.964;2023-05-19T05:12:11;9.60;1.00
28614;DHT22;15806;53.548;9.964;2023-05-19T05:13:52;9.70;1.00
28614;DHT22;15806;53.548;9.964;2023-05-19T05:15:33;9.80;99.90
28614;DHT22;15806;53.548;9.964;2023-05-19T05:17:14;9.90;99.90
28614;DHT22;15806;53.548;9.964;2023-05-19T05:18:55;9.90;99.90
28614;DHT22;15806;53.548;9.964;2023-05-19T05:20:35;10.00;99.90
28614;DHT22;15806;53.548;9.964;2023-05-19T05:22:16;9.90;99.90
28614;DHT22;15806;53.548;9.964;2023-05-19T05:23:57;10.00;99.90
28614;DHT22;15806;53.548;9.964;2023-05-19T05:25:38;10.00;99.90
28614;DHT22;15806;53.548;9.964;2023-05-19T05:27:18;9.80;99.90
28614;DHT22;15806;53.548;9.964;2023-05-19T05:28:59;9.90;99.90
28614;DHT22;15806;53.548;9.964;2023-05-19T05:30:39;10.00;99.90
28614;DHT22;15806;53.548;9.964;2023-05-19T05:32:20;10.00;47.20
28614;DHT22;15806;53.548;9.964;2023-05-19T05:34:01;10.00;52.30
28614;DHT22;15806;53.548;9.964;2023-05-19T05:35:42;10.00;72.70
28614;DHT22;15806;53.548;9.964;2023-05-19T05:37:22;10.10;60.20
28614;DHT22;15806;53.548;9.964;2023-05-19T05:39:03;10.00;1.00
28614;DHT22;15806;53.548;9.964;2023-05-19T05:40:43;9.90;1.00
28614;DHT22;15806;53.548;9.964;2023-05-19T05:42:24;9.90;1.00
28614;DHT22;15806;53.548;9.964;2023-05-19T05:44:04;9.90;1.00
28614;DHT22;15806;53.548;9.964;2023-05-19T05:45:45;10.00;1.00
28614;DHT22;15806;53.548;9.964;2023-05-19T05:47:25;10.00;1.00
28614;DHT22;15806;53.548;9.964;2023-05-19T05:49:06;10.00;1.00
28614;DHT22;15806;53.548;9.964;2023-05-19T05:50:48;10.10;1.00
28614;DHT22;15806;53.548;9.964;2023-05-19T05:52:29;10.10;1.00
28614;DHT22;15806;53.548;9.964;2023-05-19T05:54:11;10.20;1.00
28614;DHT22;15806;53.548;9.964;2023-05-19T05:55:52;10.30;1.00
28614;DHT22;15806;53.548;9.964;2023-05-19T05:57:32;10.30;1.00
28614;DHT22;15806;53.548;9.964;2023-05-19T05:59:14;10.40;1.00
28614;DHT22;15806;53.548;9.964;2023-05-19T06:00:54;10.40;1.00
28614;DHT22;15806;53.548;9.964;2023-05-19T06:02:35;10.50;99.90
28614;DHT22;15806;53.548;9.964;2023-05-19T06:04:17;10.50;99.90
28614;DHT22;15806;53.548;9.964;2023-05-19T06:05:57;10.50;99.90
28614;DHT22;15806;53.548;9.964;2023-05-19T06:07:38;10.60;99.90
28614;DHT22;15806;53.548;9.964;2023-05-19T06:09:19;10.80;99.90
28614;DHT22;15806;53.548;9.964;2023-05-19T06:10:59;10.80;99.90
28614;DHT22;15806;53.548;9.964;2023-05-19T06:12:40;10.80;99.90
28614;DHT22;15806;53.548;9.964;2023-05-19T06:14:20;10.80;99.90
28614;DHT22;15806;53.548;9.964;2023-05-19T06:16:01;11.00;99.90
28614;DHT22;15806;53.548;9.964;2023-05-19T06:17:41;11.10;99.90
28614;DHT22;15806;53.548;9.964;2023-05-19T06:19:22;11.30;99.90
28614;DHT22;15806;53.548;9.964;2023-05-19T06:21:03;11.40;99.90
28614;DHT22;15806;53.548;9.964;2023-05-19T06:22:43;11.30;99.90
28614;DHT22;15806;53.548;9.964;2023-05-19T06:24:24;11.30;99.90
28614;DHT22;15806;53.548;9.964;2023-05-19T06:26:04;11.60;99.90
28614;DHT22;15806;53.548;9.964;2023-05-19T06:27:45;11.50;48.00
28614;DHT22;15806;53.548;9.964;2023-05-19T06:29:26;11.50;8.20
28614;DHT22;15806;53.548;9.964;2023-05-19T06:31:06;11.40;1.00
28614;DHT22;15806;53.548;9.964;2023-05-19T06:32:47;11.40;1.00
28614;DHT22;15806;53.548;9.964;2023-05-19T06:34:27;11.30;12.00
28614;DHT22;15806;53.548;9.964;2023-05-19T06:36:08;11.20;13.70
28614;DHT22;15806;53.548;9.964;2023-05-19T06:37:49;11.30;10.20
28614;DHT22;15806;53.548;9.964;2023-05-19T06:39:30;11.40;27.60
28614;DHT22;15806;53.548;9.964;2023-05-19T06:41:11;11.70;5.10
28614;DHT22;15806;53.548;9.964;2023-05-19T06:42:51;12.00;1.00
28614;DHT22;15806;53.548;9.964;2023-05-19T06:44:33;12.20;1.00
28614;DHT22;15806;53.548;9.964;2023-05-19T06:46:14;12.30;1.00
28614;DHT22;15806;53.548;9.964;2023-05-19T06:47:55;12.40;1.00
28614;DHT22;15806;53.548;9.964;2023-05-19T06:49:35;12.50;1.00
28614;DHT22;15806;53.548;9.964;2023-05-19T06:51:16;12.70;1.00
28614;DHT22;15806;53.548;9.964;2023-05-19T06:52:56;12.70;1.00
28614;DHT22;15806;53.548;9.964;2023-05-19T06:54:37;12.40;1.00
28614;DHT22;15806;53.548;9.964;2023-05-19T06:56:18;12.10;1.00
28614;DHT22;15806;53.548;9.964;2023-05-19T06:57:58;12.20;1.00
28614;DHT22;15806;53.548;9.964;2023-05-19T06:59:39;12.70;1.00
28614;DHT22;15806;53.548;9.964;2023-05-19T07:01:19;12.70;1.00
28614;DHT22;15806;53.548;9.964;2023-05-19T07:03:00;12.70;1.00
28614;DHT22;15806;53.548;9.964;2023-05-19T07:04:40;12.70;1.00
28614;DHT22;15806;53.548;9.964;2023-05-19T07:06:21;12.90;1.00
28614;DHT22;15806;53.548;9.964;2023-05-19T07:08:01;14.10;1.00
28614;DHT22;15806;53.548;9.964;2023-05-19T07:09:42;15.20;1.00
28614;DHT22;15806;53.548;9.964;2023-05-19T07:11:22;15.40;99.90
28614;DHT22;15806;53.548;9.964;2023-05-19T07:13:03;15.40;99.90
28614;DHT22;15806;53.548;9.964;2023-05-19T07:14:43;16.00;99.90
28614;DHT22;15806;53.548;9.964;2023-05-19T07:16:24;16.20;99.90
28614;DHT22;15806;53.548;9.964;2023-05-19T07:18:05;16.30;99.90
28614;DHT22;15806;53.548;9.964;2023-05-19T07:19:47;16.10;99.90
28614;DHT22;15806;53.548;9.964;2023-05-19T07:21:27;15.80;99.90
28614;DHT22;15806;53.548;9.964;2023-05-19T07:23:08;16.30;99.90
28614;DHT22;15806;53.548;9.964;2023-05-19T07:24:48;15.80;99.90
28614;DHT22;15806;53.548;9.964;2023-05-19T07:26:29;15.50;99.90
28614;DHT22;15806;53.548;9.964;2023-05-19T07:28:10;16.90;99.90
28614;DHT22;15806;53.548;9.964;2023-05-19T07:29:50;19.00;99.90
28614;DHT22;15806;53.548;9.964;2023-05-19T07:31:31;20.00;99.90
28614;DHT22;15806;53.548;9.964;2023-05-19T07:33:11;20.00;99.90
28614;DHT22;15806;53.548;9.964;2023-05-19T07:34:52;19.90;99.90
28614;DHT22;15806;53.548;9.964;2023-05-19T07:36:32;19.20;99.90
28614;DHT22;15806;53.548;9.964;2023-05-19T07:38:13;19.40;99.90
28614;DHT22;15806;53.548;9.964;2023-05-19T07:39:53;20.20;99.90
28614;DHT22;15806;53.548;9.964;2023-05-19T07:41:34;20.30;99.90
28614;DHT22;15806;53.548;9.964;2023-05-19T07:43:14;21.00;99.90
28614;DHT22;15806;53.548;9.964;2023-05-19T07:44:55;19.60;99.90
28614;DHT22;15806;53.548;9.964;2023-05-19T07:46:36;19.50;99.90
28614;DHT22;15806;53.548;9.964;2023-05-19T07:48:16;19.70;99.90
28614;DHT22;15806;53.548;9.964;2023-05-19T07:49:57;19.40;99.90
28614;DHT22;15806;53.548;9.964;2023-05-19T07:51:37;18.20;99.90
28614;DHT22;15806;53.548;9.964;2023-05-19T07:53:18;17.30;99.90
28614;DHT22;15806;53.548;9.964;2023-05-19T07:54:59;16.80;99.90
28614;DHT22;15806;53.548;9.964;2023-05-19T07:56:40;16.40;99.90
28614;DHT22;15806;53.548;9.964;2023-05-19T07:58:21;16.90;99.90
28614;DHT22;15806;53.548;9.964;2023-05-19T08:00:03;17.20;99.90
28614;DHT22;15806;53.548;9.964;2023-05-19T08:01:44;16.40;99.90
28614;DHT22;15806;53.548;9.964;2023-05-19T08:03:25;16.40;99.90
28614;DHT22;15806;53.548;9.964;2023-05-19T08:05:06;17.50;99.90
28614;DHT22;15806;53.548;9.964;2023-05-19T08:06:47;19.10;99.90
28614;DHT22;15806;53.548;9.964;2023-05-19T08:08:27;20.50;99.90
28614;DHT22;15806;53.548;9.964;2023-05-19T08:10:08;20.90;99.90
28614;DHT22;15806;53.548;9.964;2023-05-19T08:11:48;21.10;99.90
28614;DHT22;15806;53.548;9.964;2023-05-19T08:13:30;21.90;99.90
28614;DHT22;15806;53.548;9.964;2023-05-19T08:15:10;22.80;99.90
28614;DHT22;15806;53.548;9.964;2023-05-19T08:16:51;23.30;99.90
28614;DHT22;15806;53.548;9.964;2023-05-19T08:18:32;20.80;99.90
28614;DHT22;15806;53.548;9.964;2023-05-19T08:20:12;20.20;99.90
28614;DHT22;15806;53.548;9.964;2023-05-19T08:21:53;21.50;99.90
28614;DHT22;15806;53.548;9.964;2023-05-19T08:23:34;20.20;99.90
28614;DHT22;15806;53.548;9.964;2023-05-19T08:25:14;18.80;99.90
28614;DHT22;15806;53.548;9.964;2023-05-19T08:28:45;17.90;99.90
28614;DHT22;15806;53.548;9.964;2023-05-19T08:30:26;18.00;99.90
28614;DHT22;15806;53.548;9.964;2023-05-19T08:32:06;18.30;99.90
28614;DHT22;15806;53.548;9.964;2023-05-19T08:37:20;18.40;99.90
28614;DHT22;15806;53.548;9.964;2023-05-19T08:39:00;19.10;99.90
28614;DHT22;15806;53.548;9.964;2023-05-19T08:40:41;19.30;99.90
28614;DHT22;15806;53.548;9.964;2023-05-19T08:42:22;20.00;99.90
28614;DHT22;15806;53.548;9.964;2023-05-19T08:44:03;21.00;99.90
28614;DHT22;15806;53.548;9.964;2023-05-19T08:45:44;20.70;99.90
28614;DHT22;15806;53.548;9.964;2023-05-19T08:47:25;19.70;99.90
28614;DHT22;15806;53.548;9.964;2023-05-19T08:49:12;19.10;99.90
28614;DHT22;15806;53.548;9.964;2023-05-19T08:51:19;18.50;99.90
28614;DHT22;15806;53.548;9.964;2023-05-19T08:53:11;18.40;99.90
28614;DHT22;15806;53.548;9.964;2023-05-19T08:54:58;19.10;99.90
28614;DHT22;15806;53.548;9.964;2023-05-19T08:56:44;19.00;99.90
28614;DHT22;15806;53.548;9.964;2023-05-19T08:58:25;18.00;99.90
28614;DHT22;15806;53.548;9.964;2023-05-19T09:00:06;18.10;99.90
28614;DHT22;15806;53.548;9.964;2023-05-19T09:01:47;17.80;99.90
28614;DHT22;15806;53.548;9.964;2023-05-19T09:03:29;18.20;99.90
28614;DHT22;15806;53.548;9.964;2023-05-19T09:05:11;18.10;99.90
28614;DHT22;15806;53.548;9.964;2023-05-19T09:06:51;18.30;99.90
28614;DHT22;15806;53.548;9.964;2023-05-19T09:08:32;18.60;99.90
28614;DHT22;15806;53.548;9.964;2023-05-19T09:10:13;18.30;99.90
28614;DHT22;15806;53.548;9.964;2023-05-19T09:11:54;17.90;99.90
28614;DHT22;15806;53.548;9.964;2023-05-19T09:13:35;17.80;99.90
28614;DHT22;15806;53.548;9.964;2023-05-19T09:15:16;17.90;99.90
28614;DHT22;15806;53.548;9.964;2023-05-19T09:16:57;17.60;99.90
28614;DHT22;15806;53.548;9.964;2023-05-19T09:18:38;17.40;99.90
28614;DHT22;15806;53.548;9.964;2023-05-19T09:20:19;17.70;99.90
28614;DHT22;15806;53.548;9.964;2023-05-19T09:22:01;18.30;99.90
28614;DHT22;15806;53.548;9.964;2023-05-19T09:23:46;18.30;99.90
28614;DHT22;15806;53.548;9.964;2023-05-19T09:25:26;17.80;99.90
28614;DHT22;15806;53.548;9.964;2023-05-19T09:27:07;17.70;99.90
28614;DHT22;15806;53.548;9.964;2023-05-19T09:28:48;17.50;99.90
28614;DHT22;15806;53.548;9.964;2023-05-19T09:30:29;17.40;99.90
28614;DHT22;15806;53.548;9.964;2023-05-19T09:32:10;16.80;99.90
28614;DHT22;15806;53.548;9.964;2023-05-19T09:33:52;16.60;99.90
28614;DHT22;15806;53.548;9.964;2023-05-19T09:35:33;16.80;99.90
28614;DHT22;15806;53.548;9.964;2023-05-19T09:37:14;16.70;99.90
28614;DHT22;15806;53.548;9.964;2023-05-19T09:38:54;16.70;99.90
28614;DHT22;15806;53.548;9.964;2023-05-19T09:40:35;16.70;99.90
28614;DHT22;15806;53.548;9.964;2023-05-19T09:42:15;16.50;99.90
28614;DHT22;15806;53.548;9.964;2023-05-19T09:43:56;16.70;99.90
28614;DHT22;15806;53.548;9.964;2023-05-19T09:45:36;16.80;99.90
28614;DHT22;15806;53.548;9.964;2023-05-19T09:47:17;16.70;99.90
28614;DHT22;15806;53.548;9.964;2023-05-19T09:48:57;16.80;99.90
28614;DHT22;15806;53.548;9.964;2023-05-19T09:50:38;16.90;99.90
28614;DHT22;15806;53.548;9.964;2023-05-19T09:52:19;17.00;99.90
28614;DHT22;15806;53.548;9.964;2023-05-19T09:54:00;16.90;99.90
28614;DHT22;15806;53.548;9.964;2023-05-19T09:55:41;16.90;99.90
28614;DHT22;15806;53.548;9.964;2023-05-19T09:57:25;16.80;99.90
28614;DHT22;15806;53.548;9.964;2023-05-19T09:59:05;16.70;99.90
28614;DHT22;15806;53.548;9.964;2023-05-19T10:00:46;16.70;99.90
28614;DHT22;15806;53.548;9.964;2023-05-19T10:02:27;16.70;99.90
28614;DHT22;15806;53.548;9.964;2023-05-19T10:04:09;16.80;99.90
28614;DHT22;15806;53.548;9.964;2023-05-19T10:05:52;16.50;99.90
28614;DHT22;15806;53.548;9.964;2023-05-19T10:07:33;16.40;99.90
28614;DHT22;15806;53.548;9.964;2023-05-19T10:09:30;16.70;99.90
28614;DHT22;15806;53.548;9.964;2023-05-19T10:11:21;16.80;99.90
28614;DHT22;15806;53.548;9.964;2023-05-19T10:13:23;16.90;99.90
28614;DHT22;15806;53.548;9.964;2023-05-19T10:15:09;16.90;99.90
28614;DHT22;15806;53.548;9.964;2023-05-19T10:16:50;16.70;99.90
28614;DHT22;15806;53.548;9.964;2023-05-19T10:18:32;16.50;99.90
28614;DHT22;15806;53.548;9.964;2023-05-19T10:20:17;16.60;99.90
28614;DHT22;15806;53.548;9.964;2023-05-19T10:22:18;16.60;99.90
28614;DHT22;15806;53.548;9.964;2023-05-19T10:23:58;16.80;99.90
28614;DHT22;15806;53.548;9.964;2023-05-19T10:25:39;16.90;99.90
28614;DHT22;15806;53.548;9.964;2023-05-19T10:27:22;16.60;99.90
28614;DHT22;15806;53.548;9.964;2023-05-19T10:29:04;16.50;99.90
28614;DHT22;15806;53.548;9.964;2023-05-19T10:30:47;16.80;99.90
28614;DHT22;15806;53.548;9.964;2023-05-19T10:32:30;16.90;99.90
28614;DHT22;15806;53.548;9.964;2023-05-19T10:36:56;17.10;99.90
28614;DHT22;15806;53.548;9.964;2023-05-19T10:38:45;17.20;99.90
28614;DHT22;15806;53.548;9.964;2023-05-19T10:40:32;17.30;99.90
28614;DHT22;15806;53.548;9.964;2023-05-19T10:42:35;17.40;99.90
28614;DHT22;15806;53.548;9.964;2023-05-19T10:46:09;17.30;99.90
28614;DHT22;15806;53.548;9.964;2023-05-19T10:47:50;17.10;99.90
28614;DHT22;15806;53.548;9.964;2023-05-19T10:49:34;17.10;99.90
28614;DHT22;15806;53.548;9.964;2023-05-19T10:51:15;17.30;99.90
28614;DHT22;15806;53.548;9.964;2023-05-19T10:52:55;17.30;99.90
28614;DHT22;15806;53.548;9.964;2023-05-19T10:54:40;17.30;99.90
28614;DHT22;15806;53.548;9.964;2023-05-19T10:58:08;17.50;99.90
28614;DHT22;15806;53.548;9.964;2023-05-19T10:59:48;17.50;99.90
28614;DHT22;15806;53.548;9.964;2023-05-19T11:01:33;17.50;99.90
28614;DHT22;15806;53.548;9.964;2023-05-19T11:03:15;17.40;99.90
28614;DHT22;15806;53.548;9.964;2023-05-19T11:05:06;17.30;99.90
28614;DHT22;15806;53.548;9.964;2023-05-19T11:06:50;17.40;99.90
28614;DHT22;15806;53.548;9.964;2023-05-19T11:08:31;17.50;99.90
28614;DHT22;15806;53.548;9.964;2023-05-19T11:10:12;18.00;99.90
28614;DHT22;15806;53.548;9.964;2023-05-19T11:11:53;20.40;99.90
28614;DHT22;15806;53.548;9.964;2023-05-19T11:13:33;22.60;99.90
28614;DHT22;15806;53.548;9.964;2023-05-19T11:15:15;24.10;96.00
28614;DHT22;15806;53.548;9.964;2023-05-19T11:16:56;24.40;80.00
28614;DHT22;15806;53.548;9.964;2023-05-19T11:18:37;24.60;66.10